Time;durP1;ratioP1;P1;durP2;ratioP2;P2;SDS_P1;SDS_P2;PMS_P1;PMS_P2;Temp;Humidity;BMP_temperature;BMP_pressure;BME280_temperature;BME280_humidity;BME280_pressure;Samples;Min_cycle;Max_cycle;Signal;HPM_P1;HPM_P2
2022/08/20 00:02:15;;;;;;;6.88;6.28;;;22.60;99.90;;;23.20;80.94;101470.94;4826591;29;20419;-67
2022/08/20 00:04:44;;;;;;;8.70;5.72;;;22.60;99.90;;;23.27;81.26;101461.59;4826523;29;20065;-67
2022/08/20 00:07:13;;;;;;;9.45;6.75;;;22.80;99.90;;;23.36;81.00;101463.03;4826426;29;20057;-63
2022/08/20 00:09:42;;;;;;;6.72;5.47;;;22.90;99.90;;;23.40;80.52;101464.66;4826358;29;20062;-63
2022/08/20 00:12:12;;;;;;;9.65;5.38;;;22.90;99.90;;;23.43;79.96;101471.69;4826691;29;20042;-67
2022/08/20 00:14:42;;;;;;;12.43;6.13;;;23.00;99.90;;;23.43;79.84;101467.19;4826619;29;20084;-67
2022/08/20 00:17:11;;;;;;;12.38;5.15;;;23.00;99.90;;;23.46;79.96;101466.16;4826645;29;20054;-67
2022/08/20 00:19:39;;;;;;;10.48;6.30;;;23.00;99.90;;;23.43;79.52;101453.69;4826198;29;20124;-71
2022/08/20 00:22:07;;;;;;;10.10;6.25;;;23.10;99.90;;;23.54;79.24;101472.94;4826270;29;20045;-68
2022/08/20 00:24:36;;;;;;;10.77;6.20;;;23.10;99.90;;;23.59;78.56;101476.31;4826469;29;20074;-60
2022/08/20 00:27:04;;;;;;;12.95;6.05;;;23.10;99.90;;;23.58;77.92;101479.06;4826663;29;20408;-62
2022/08/20 00:29:32;;;;;;;8.65;4.80;;;23.10;99.90;;;23.54;77.69;101472.94;4826858;29;20054;-62
2022/08/20 00:32:02;;;;;;;13.55;5.88;;;23.10;99.90;;;23.60;76.92;101478.03;4826396;29;20042;-60
2022/08/20 00:34:30;;;;;;;10.50;5.45;;;23.20;99.90;;;23.59;76.87;101470.91;4826678;29;20084;-59
2022/08/20 00:36:59;;;;;;;6.80;4.93;;;23.20;99.90;;;23.60;76.11;101478.03;4826520;29;20053;-60
2022/08/20 00:39:27;;;;;;;12.57;6.90;;;23.20;99.90;;;23.58;75.59;101474.53;4826622;29;20149;-60
2022/08/20 00:41:55;;;;;;;11.65;8.82;;;23.20;99.90;;;23.61;75.40;101471.72;4826349;29;20568;-60
2022/08/20 00:44:24;;;;;;;67.70;53.53;;;23.20;99.90;;;23.57;74.96;101472.81;4825693;29;20078;-66
2022/08/20 00:46:53;;;;;;;13.80;7.22;;;23.20;99.90;;;23.62;74.68;101480.66;4826517;29;20133;-59
2022/08/20 00:49:26;;;;;;;11.95;8.75;;;23.20;99.90;;;23.58;74.41;101481.75;4826536;29;20058;-60
2022/08/20 00:52:01;;;;;;;11.90;7.10;;;23.20;99.90;;;23.64;73.73;101484.16;4826476;29;20050;-67
2022/08/20 00:54:35;;;;;;;8.98;6.22;;;23.20;99.90;;;23.64;73.00;101485.06;4826211;29;20078;-62
2022/08/20 00:57:09;;;;;;;10.88;4.82;;;23.30;99.90;;;23.60;72.80;101477.16;4826452;29;20115;-61
2022/08/20 00:59:42;;;;;;;9.98;5.20;;;23.20;99.90;;;23.60;72.82;101483.44;4826702;29;20146;-61
2022/08/20 01:02:17;;;;;;;9.48;5.10;;;23.20;99.90;;;23.58;72.47;101479.06;4826168;29;20042;-60
2022/08/20 01:04:49;;;;;;;12.95;5.28;;;23.20;99.90;;;23.54;72.55;101477.50;4826070;29;20054;-62
2022/08/20 01:07:19;;;;;;;12.27;5.50;;;23.10;99.90;;;23.56;72.19;101481.84;4826314;29;20051;-63
2022/08/20 01:09:48;;;;;;;10.07;5.78;;;23.20;99.90;;;23.56;72.05;101471.03;4826255;29;20069;-69
2022/08/20 01:12:29;;;;;;;13.35;5.57;;;23.10;99.90;;;23.56;71.61;101480.97;4824907;29;20055;-61
2022/08/20 01:15:01;;;;;;;9.32;4.95;;;23.10;99.90;;;23.46;71.74;101475.13;4825852;29;20125;-60
2022/08/20 01:17:35;;;;;;;11.90;5.25;;;23.10;99.90;;;23.44;71.72;101474.31;4826050;29;20046;-73
2022/08/20 01:20:10;;;;;;;11.30;5.13;;;23.00;99.90;;;23.38;72.07;101473.75;4825849;29;20055;-62
2022/08/20 01:25:43;;;;;;;10.77;5.55;;;22.90;99.90;;;23.18;72.28;101478.25;4825682;29;20058;-64
2022/08/20 01:28:14;;;;;;;9.75;4.93;;;22.80;99.90;;;23.13;72.28;101480.25;4825947;29;20204;-65
2022/08/20 01:30:43;;;;;;;18.88;6.55;;;22.70;99.90;;;23.08;72.62;101476.03;4824671;29;20088;-66
2022/08/20 01:33:12;;;;;;;11.63;5.03;;;22.70;99.90;;;23.03;73.08;101481.66;4825633;29;20104;-64
2022/08/20 01:35:43;;;;;;;13.85;5.05;;;22.60;99.90;;;23.00;72.99;101481.78;4825739;29;20464;-65
2022/08/20 01:38:13;;;;;;;11.35;5.70;;;22.60;99.90;;;22.93;73.15;101484.84;4825459;29;20103;-63
2022/08/20 01:41:09;;;;;;;11.60;5.95;;;22.50;99.90;;;22.87;73.29;101491.38;4825835;29;20058;-68
2022/08/20 01:43:40;;;;;;;8.70;4.90;;;22.40;99.90;;;22.88;73.44;101495.81;4825432;29;20451;-68
2022/08/20 01:46:10;;;;;;;9.93;5.80;;;22.40;99.90;;;22.79;73.49;101493.53;4825475;29;20054;-68
2022/08/20 01:48:40;;;;;;;13.02;5.55;;;22.30;99.90;;;22.75;73.94;101493.75;4825418;29;20053;-70
2022/08/20 01:51:13;;;;;;;10.80;5.13;;;22.30;99.90;;;22.70;74.47;101498.47;4825660;29;20129;-68
2022/08/20 01:53:45;;;;;;;13.63;5.95;;;22.20;99.90;;;22.67;74.45;101504.88;4825316;29;20141;-68
2022/08/20 01:56:20;;;;;;;8.95;5.38;;;22.20;99.90;;;22.58;74.59;101482.81;4824877;29;20065;-68
2022/08/20 01:58:52;;;;;;;10.55;5.50;;;22.20;99.90;;;22.65;74.32;101495.13;4825238;29;20046;-68
2022/08/20 02:01:29;;;;;;;11.70;5.60;;;22.20;99.90;;;22.60;74.69;101486.34;4825190;29;20103;-68
2022/08/20 02:03:57;;;;;;;10.40;5.93;;;22.20;99.90;;;22.69;74.90;101504.81;4825423;29;20057;-68
2022/08/20 02:06:27;;;;;;;13.73;6.10;;;22.20;99.90;;;22.62;75.13;101497.94;4825083;29;20049;-68
2022/08/20 02:08:59;;;;;;;12.73;5.50;;;22.20;99.90;;;22.48;75.24;101505.72;4824147;29;20558;-68
2022/08/20 02:11:32;;;;;;;12.18;6.13;;;22.10;99.90;;;22.38;75.36;101508.81;4824102;29;20082;-68
2022/08/20 02:14:00;;;;;;;11.68;6.07;;;22.00;99.90;;;22.34;75.81;101503.59;4825225;29;20051;-68
2022/08/20 02:16:32;;;;;;;11.70;6.22;;;21.90;99.90;;;22.30;75.76;101508.25;4825092;29;20046;-68
2022/08/20 02:19:08;;;;;;;12.07;5.57;;;21.80;99.90;;;22.24;76.10;101505.81;4824918;29;20493;-68
2022/08/20 02:21:40;;;;;;;11.25;5.97;;;21.80;99.90;;;22.27;76.21;101507.50;4824917;29;20074;-68
2022/08/20 02:24:09;;;;;;;12.38;5.97;;;21.80;99.90;;;22.22;76.48;101505.00;4824893;29;20428;-68
2022/08/20 02:26:41;;;;;;;14.07;5.93;;;21.80;99.90;;;22.15;76.72;101500.81;4825287;29;20073;-68
2022/08/20 02:29:12;;;;;;;15.85;6.50;;;21.70;99.90;;;22.17;76.91;101503.44;4824762;29;20095;-68
2022/08/20 02:31:44;;;;;;;14.40;6.47;;;21.70;99.90;;;22.05;77.20;101485.09;4825043;29;20107;-68
2022/08/20 02:34:34;;;;;;;14.18;6.00;;;21.70;99.90;;;22.08;77.74;101501.16;4824597;29;20226;-68
2022/08/20 02:37:04;;;;;;;12.18;6.28;;;21.60;99.90;;;22.04;77.74;101497.72;4825012;29;20070;-68
2022/08/20 02:39:33;;;;;;;13.20;6.05;;;21.60;99.90;;;21.89;78.03;101501.00;4824962;29;20097;-68
2022/08/20 02:42:04;;;;;;;11.48;5.30;;;21.60;99.90;;;21.91;78.57;101507.22;4823288;29;20125;-69
2022/08/20 02:44:33;;;;;;;18.10;5.72;;;21.50;99.90;;;21.78;78.80;101502.34;4824839;29;20070;-68
2022/08/20 02:47:01;;;;;;;7.07;3.88;;;21.40;99.90;;;21.70;78.96;101512.59;4825033;29;20074;-68
2022/08/20 02:49:30;;;;;;;12.55;3.95;;;21.20;99.90;;;21.56;80.09;101505.06;4824445;29;20102;-68
2022/08/20 02:51:58;;;;;;;3.88;3.58;;;21.10;99.90;;;21.55;80.61;101511.34;4824434;29;20041;-68
2022/08/20 02:54:28;;;;;;;6.80;6.05;;;21.10;99.90;;;21.38;80.65;101508.44;4824895;29;20082;-68
2022/08/20 02:56:56;;;;;;;6.10;5.50;;;21.00;99.90;;;21.29;80.42;101506.13;4824395;29;20042;-68
2022/08/20 02:59:26;;;;;;;5.35;4.85;;;20.90;99.90;;;21.24;79.95;101514.38;4824363;29;20133;-68
2022/08/20 03:01:54;;;;;;;6.97;4.68;;;20.80;99.90;;;21.12;79.85;101512.13;4824652;29;20070;-68
2022/08/20 03:04:28;;;;;;;4.22;3.75;;;20.70;99.90;;;21.09;80.14;101509.56;4824864;29;20504;-68
2022/08/20 03:06:56;;;;;;;4.40;4.00;;;20.60;99.90;;;21.10;80.46;101502.38;4823752;29;20042;-68
2022/08/20 03:09:25;;;;;;;6.75;4.47;;;20.60;99.90;;;21.14;80.56;101510.25;4824095;29;20046;-68
2022/08/20 03:11:54;;;;;;;4.38;4.00;;;20.70;99.90;;;21.15;80.86;101512.03;4824138;29;20056;-68
2022/08/20 03:14:23;;;;;;;7.22;4.13;;;20.60;99.90;;;21.23;81.23;101518.00;4824175;29;20039;-68
2022/08/20 03:16:53;;;;;;;14.93;5.47;;;20.70;99.90;;;21.09;81.07;101514.94;4824312;29;20401;-68
2022/08/20 03:19:21;;;;;;;12.68;5.13;;;20.70;99.90;;;21.05;81.11;101507.03;4824177;29;20564;-68
2022/08/20 03:21:50;;;;;;;6.28;4.88;;;20.60;99.90;;;20.99;81.43;101508.13;4824156;29;20335;-68
2022/08/20 03:24:18;;;;;;;5.65;4.63;;;20.60;99.90;;;20.90;81.19;101507.56;4824314;29;20046;-68
2022/08/20 03:26:47;;;;;;;4.10;3.70;;;20.50;99.90;;;20.84;81.20;101499.72;4824032;29;20363;-68
2022/08/20 03:29:15;;;;;;;7.90;3.67;;;20.40;99.90;;;20.90;81.83;101500.41;4823968;29;20508;-68
2022/08/20 03:31:44;;;;;;;3.88;3.60;;;20.40;99.90;;;20.71;81.65;101479.59;4824247;29;20050;-68
2022/08/20 03:34:13;;;;;;;5.93;3.25;;;20.40;99.90;;;20.68;82.12;101502.97;4824488;29;20042;-68
2022/08/20 03:36:42;;;;;;;13.65;3.13;;;20.30;99.90;;;20.57;81.57;101506.97;4822913;29;20546;-68
2022/08/20 03:39:12;;;;;;;2.83;2.72;;;20.10;99.90;;;20.43;81.10;101507.47;4823706;29;20055;-68
2022/08/20 03:41:40;;;;;;;3.25;3.05;;;20.00;99.90;;;20.36;81.25;101510.41;4824112;29;20406;-68
2022/08/20 03:44:08;;;;;;;3.38;3.08;;;19.90;99.90;;;20.32;81.27;101506.97;4824114;29;20375;-68
2022/08/20 03:46:38;;;;;;;3.65;3.45;;;19.90;99.90;;;20.28;81.57;101507.09;4824273;29;20058;-68
2022/08/20 03:49:06;;;;;;;4.03;3.30;;;19.80;99.90;;;20.28;81.62;101507.09;4823795;29;20070;-68
2022/08/20 03:51:36;;;;;;;3.35;3.00;;;19.80;99.90;;;20.24;81.48;101510.81;4823805;29;20058;-68
2022/08/20 03:54:24;;;;;;;6.32;3.55;;;19.80;99.90;;;20.20;81.37;101511.84;4823836;29;20073;-68
2022/08/20 03:57:01;;;;;;;12.38;3.50;;;19.70;99.90;;;20.17;81.39;101515.47;4823726;29;20038;-68
2022/08/20 03:59:31;;;;;;;3.60;2.95;;;19.70;99.90;;;20.10;81.26;101513.94;4823775;29;20050;-68
2022/08/20 04:02:00;;;;;;;3.33;3.03;;;19.70;99.90;;;20.06;80.92;101501.53;4823755;29;20121;-68
2022/08/20 04:04:28;;;;;;;3.95;3.05;;;19.60;99.90;;;20.08;81.05;101512.22;4823648;29;20050;-68
2022/08/20 04:06:58;;;;;;;2.92;2.60;;;19.60;99.90;;;20.11;81.33;101509.47;4823608;29;20462;-68
2022/08/20 04:09:27;;;;;;;2.80;2.60;;;19.70;99.90;;;20.05;81.24;101507.84;4823659;29;20129;-68
2022/08/20 04:11:59;;;;;;;5.30;3.10;;;19.60;99.90;;;20.06;81.24;101506.91;4823518;29;20051;-68
2022/08/20 04:14:28;;;;;;;7.72;2.88;;;19.60;99.90;;;20.06;80.87;101512.28;4823581;29;20103;-68
2022/08/20 04:16:57;;;;;;;3.00;2.70;;;19.60;99.90;;;20.02;81.16;101517.78;4823431;29;20038;-68
2022/08/20 04:19:25;;;;;;;3.35;2.45;;;19.60;99.90;;;19.96;81.13;101516.19;4825219;29;20043;-68
2022/08/20 04:22:00;;;;;;;4.15;2.40;;;19.50;99.90;;;19.93;80.46;101524.38;4827004;29;20058;-68
2022/08/20 04:24:29;;;;;;;5.25;2.28;;;19.50;99.90;;;19.84;80.21;101519.28;4826938;29;20396;-68
2022/08/20 04:27:01;;;;;;;3.10;2.90;;;19.40;99.90;;;19.80;80.16;101515.81;4827151;29;20054;-68
2022/08/20 04:29:30;;;;;;;2.83;2.63;;;19.40;99.90;;;19.82;80.96;101520.28;4826631;29;20050;-68
2022/08/20 04:32:01;;;;;;;3.63;2.88;;;19.40;99.90;;;19.83;81.05;101522.00;4826801;29;20046;-68
2022/08/20 04:34:34;;;;;;;3.13;2.38;;;19.40;99.90;;;19.78;81.25;101530.22;4826817;29;20058;-68
2022/08/20 04:37:04;;;;;;;2.47;2.28;;;19.30;99.90;;;19.73;81.45;101530.38;4826407;29;20050;-68
2022/08/20 04:39:33;;;;;;;2.50;2.40;;;19.30;99.90;;;19.67;81.59;101537.72;4826838;29;20086;-68
2022/08/20 04:42:01;;;;;;;3.05;2.85;;;19.30;99.90;;;19.66;81.91;101534.19;4826375;29;20299;-68
2022/08/20 04:44:29;;;;;;;5.13;2.58;;;19.20;99.90;;;19.63;81.44;101534.25;4826356;29;20078;-68
2022/08/20 04:46:58;;;;;;;5.60;2.75;;;19.30;99.90;;;19.63;81.31;101534.25;4826245;29;20129;-68
2022/08/20 04:49:26;;;;;;;2.60;2.40;;;19.20;99.90;;;19.56;81.30;101523.75;4826249;29;20456;-68
2022/08/20 04:51:55;;;;;;;4.35;2.80;;;19.20;99.90;;;19.60;81.52;101542.41;4826232;29;20050;-68
2022/08/20 04:54:25;;;;;;;2.80;2.60;;;19.20;99.90;;;19.69;82.00;101541.25;4826196;29;20129;-68
2022/08/20 04:56:53;;;;;;;4.15;3.03;;;19.20;99.90;;;19.69;81.81;101544.81;4826128;29;20046;-68
2022/08/20 04:59:21;;;;;;;5.72;3.17;;;19.30;99.90;;;19.60;82.02;101522.75;4826596;29;20133;-68
2022/08/20 05:01:49;;;;;;;5.50;3.22;;;19.30;99.90;;;19.73;81.88;101546.47;4826109;29;20043;-68
2022/08/20 05:04:18;;;;;;;5.38;3.10;;;19.30;99.90;;;19.76;81.69;101578.59;4825028;29;20088;-68
2022/08/20 05:06:48;;;;;;;4.43;3.40;;;19.30;99.90;;;19.77;81.54;101552.63;4825922;29;20068;-68
2022/08/20 05:09:16;;;;;;;6.55;3.63;;;19.30;99.90;;;19.75;81.95;101557.16;4826027;29;20043;-68
2022/08/20 05:11:46;;;;;;;4.45;3.80;;;19.30;99.90;;;19.79;82.36;101556.13;4825883;29;20061;-68
2022/08/20 05:14:14;;;;;;;7.82;4.13;;;19.30;99.90;;;19.94;82.38;101554.78;4826401;29;20054;-68
2022/08/20 05:16:43;;;;;;;4.60;4.20;;;19.40;99.90;;;20.04;83.09;101565.19;4825989;29;20481;-68
2022/08/20 05:19:13;;;;;;;5.85;4.47;;;19.50;99.90;;;20.12;83.33;101565.81;4826101;29;20066;-68
2022/08/20 05:21:41;;;;;;;4.80;3.88;;;19.60;99.90;;;20.18;83.31;101571.03;4824485;29;20058;-68
2022/08/20 05:24:10;;;;;;;4.40;3.03;;;19.70;99.90;;;20.22;83.17;101567.31;4824336;29;20054;-68
2022/08/20 05:26:39;;;;;;;3.40;3.10;;;19.80;99.90;;;20.34;83.01;101566.03;4824612;29;20489;-68
2022/08/20 05:29:09;;;;;;;2.85;2.75;;;19.90;99.90;;;20.46;82.73;101569.16;4825587;29;20066;-68
2022/08/20 05:31:38;;;;;;;2.60;2.50;;;20.00;99.90;;;20.42;82.16;101556.75;4825156;29;20054;-68
2022/08/20 05:34:08;;;;;;;2.97;2.78;;;20.10;99.90;;;20.68;81.85;101574.69;4824525;29;20046;-68
2022/08/20 05:36:39;;;;;;;2.60;2.40;;;20.20;99.90;;;20.78;81.52;101581.50;4825786;29;20134;-68
2022/08/20 05:39:09;;;;;;;2.88;2.70;;;20.30;99.90;;;20.88;81.09;101585.63;4825829;29;20122;-68
2022/08/20 05:41:37;;;;;;;5.10;4.57;;;20.50;99.90;;;20.98;80.15;101587.03;4825274;29;20505;-68
2022/08/20 05:44:12;;;;;;;6.30;5.65;;;20.60;99.90;;;21.05;80.25;101580.56;4825417;29;20057;-68
2022/08/20 05:46:42;;;;;;;5.68;5.18;;;20.60;99.90;;;21.25;80.34;101596.00;4824143;29;20054;-68
2022/08/20 05:49:13;;;;;;;8.15;6.90;;;20.80;99.90;;;21.46;79.88;101597.88;4825444;29;20413;-68
2022/08/20 05:51:41;;;;;;;12.82;8.80;;;21.00;99.90;;;21.64;79.71;101591.78;4825407;29;20098;-68
2022/08/20 05:54:10;;;;;;;10.27;7.75;;;21.20;99.90;;;21.91;79.30;101598.81;4825249;29;20046;-68
2022/08/20 05:56:38;;;;;;;7.00;6.10;;;21.40;99.90;;;22.10;78.42;101593.59;4825186;29;20107;-68
2022/08/20 05:59:11;;;;;;;7.60;5.53;;;21.60;99.90;;;22.33;77.88;101598.94;4825172;29;20043;-68
2022/08/20 06:01:41;;;;;;;5.47;3.83;;;21.80;99.90;;;22.62;77.17;101598.63;4825207;29;20054;-68
2022/08/20 06:04:26;;;;;;;6.32;4.53;;;22.10;99.90;;;22.82;76.54;101597.78;4825440;29;20089;-68
2022/08/20 06:06:58;;;;;;;7.43;5.15;;;22.40;99.90;;;22.99;75.56;101606.91;4824175;29;20149;-68
2022/08/20 06:09:26;;;;;;;4.65;4.20;;;22.50;99.90;;;23.03;75.47;101608.53;4825308;29;20110;-68
2022/08/20 06:12:01;;;;;;;4.85;4.10;;;22.60;99.90;;;23.20;75.33;101613.16;4825309;29;20057;-68
2022/08/20 06:14:31;;;;;;;;;;;22.80;99.90;;;23.47;74.62;101608.34;4825680;29;20042;-68
2022/08/20 06:17:06;;;;;;;4.87;4.47;;;23.00;99.90;;;23.76;73.92;101619.56;4825202;29;19931;-68
2022/08/20 06:19:37;;;;;;;6.22;5.00;;;23.20;99.90;;;23.98;73.84;101606.78;4824909;29;20070;-68
2022/08/20 06:22:07;;;;;;;6.97;4.88;;;23.50;99.90;;;24.25;73.31;101617.25;4825191;29;20058;-68
2022/08/20 06:24:48;;;;;;;9.45;5.97;;;23.70;99.90;;;24.52;71.79;101614.06;4824812;29;20153;-68
2022/08/20 06:27:17;;;;;;;12.13;6.57;;;24.00;99.90;;;24.66;70.37;101618.78;4825256;29;20477;-68
2022/08/20 06:29:47;;;;;;;10.68;6.15;;;24.20;99.90;;;24.65;69.82;101595.38;4824960;29;20058;-68
2022/08/20 06:32:17;;;;;;;13.63;6.47;;;24.30;99.90;;;24.79;68.35;101620.84;4824776;29;20058;-68
2022/08/20 06:34:45;;;;;;;12.55;6.70;;;24.30;99.90;;;25.01;67.58;101621.44;4824956;29;20111;-68
2022/08/20 06:37:21;;;;;;;9.57;5.82;;;24.50;99.90;;;25.19;66.13;101629.56;4823555;29;20074;-69
2022/08/20 06:39:51;;;;;;;8.73;5.32;;;24.70;99.90;;;25.33;65.51;101629.72;4824944;29;20055;-69
2022/08/20 06:42:21;;;;;;;10.68;6.00;;;24.80;99.90;;;25.37;65.13;101625.88;4824198;29;20054;-69
2022/08/20 06:44:51;;;;;;;12.40;6.65;;;24.90;99.90;;;25.47;63.90;101629.91;4824543;29;20450;-69
2022/08/20 06:47:22;;;;;;;12.47;5.70;;;25.00;99.90;;;25.54;62.62;101632.19;4824974;29;20061;-69
2022/08/20 06:49:50;;;;;;;12.55;5.68;;;25.10;99.90;;;25.67;62.14;101630.56;4824522;29;20050;-69
2022/08/20 06:52:19;;;;;;;12.63;5.68;;;25.30;99.90;;;25.74;62.66;101640.13;4824432;29;20057;-68
2022/08/20 06:55:02;;;;;;;10.38;5.07;;;25.30;99.90;;;25.78;60.50;101632.69;4824450;29;20042;-68
2022/08/20 06:57:30;;;;;;;10.32;4.32;;;25.40;99.90;;;25.83;58.30;101639.59;4824298;29;20038;-68
2022/08/20 07:00:00;;;;;;;15.13;4.95;;;25.50;99.90;;;25.83;56.67;101638.72;4824670;29;20042;-68
2022/08/20 07:02:28;;;;;;;14.50;4.67;;;25.50;99.90;;;25.35;55.88;101566.38;4824598;29;20057;-68
2022/08/20 07:04:57;;;;;;;15.38;5.20;;;25.50;99.90;;;25.93;56.94;101638.13;4824420;29;20496;-68
2022/08/20 07:07:28;;;;;;;12.07;4.88;;;25.60;99.90;;;26.11;55.77;101648.94;4824446;29;20047;-68
2022/08/20 07:10:00;;;;;;;14.07;5.03;;;25.70;99.90;;;26.07;56.06;101639.22;4824669;29;20485;-69
2022/08/20 07:12:29;;;;;;;9.68;4.15;;;25.80;99.90;;;26.28;55.63;101657.00;4824219;29;20061;-69
2022/08/20 07:14:58;;;;;;;7.75;3.85;;;25.90;99.90;;;26.33;54.57;101650.34;4824151;29;20053;-69
2022/08/20 07:17:27;;;;;;;12.13;4.35;;;26.00;99.90;;;26.45;53.36;101649.66;4824139;29;20046;-69
2022/08/20 07:19:55;;;;;;;11.15;4.38;;;26.10;99.90;;;26.54;53.14;101648.22;4824650;29;20082;-69
2022/08/20 07:22:24;;;;;;;8.52;4.15;;;26.20;99.90;;;26.58;53.05;101647.97;4824054;29;20080;-69
2022/08/20 07:24:52;;;;;;;13.18;4.55;;;26.30;99.90;;;26.69;51.94;101655.50;4824308;29;20295;-69
2022/08/20 07:27:22;;;;;;;10.10;4.32;;;26.40;99.90;;;26.86;52.13;101655.41;4823962;29;20058;-69
2022/08/20 07:32:45;;;;;;;10.40;4.20;;;26.60;99.90;;;27.04;51.68;101661.59;4824189;29;20042;-68
2022/08/20 07:35:22;;;;;;;8.68;4.63;;;26.70;99.90;;;26.83;51.46;101633.84;4823992;29;20058;-69
2022/08/20 07:37:53;;;;;;;12.85;4.90;;;26.70;99.90;;;27.02;51.67;101653.53;4824024;29;20090;-69
2022/08/20 07:40:27;;;;;;;11.57;4.65;;;26.70;99.90;;;27.08;51.04;101661.28;4824060;29;20062;-65
2022/08/20 07:42:57;;;;;;;9.52;3.85;;;26.70;99.90;;;27.17;50.54;101659.88;4823973;29;20111;-66
2022/08/20 07:45:25;;;;;;;8.65;4.35;;;26.80;99.90;;;27.28;50.18;101676.38;4823877;29;20451;-63
2022/08/20 07:47:55;;;;;;;13.25;4.22;;;26.90;99.90;;;27.27;49.19;101670.09;4823991;29;20085;-65
2022/08/20 07:50:26;;;;;;;7.57;3.58;;;26.90;99.90;;;27.27;48.36;101661.94;4824038;29;20059;-64
2022/08/20 07:52:54;;;;;;;;;;;26.90;99.90;;;27.39;49.04;101666.63;4824451;29;20478;-68
2022/08/20 07:55:23;;;;;;;7.68;3.72;;;27.10;99.90;;;27.41;48.42;101669.28;4825825;29;19925;-63
2022/08/20 07:57:52;;;;;;;9.75;4.10;;;27.10;99.90;;;27.52;47.42;101669.47;4826996;29;20054;-64
2022/08/20 08:00:22;;;;;;;8.85;3.67;;;27.20;99.90;;;27.39;47.74;101657.63;4827321;29;20409;-64
2022/08/20 08:02:51;;;;;;;10.98;4.50;;;27.20;99.90;;;27.57;48.50;101672.78;4827001;29;20046;-65
2022/08/20 08:05:20;;;;;;;12.27;4.03;;;27.20;99.90;;;27.55;48.54;101672.88;4827201;29;20050;-66
2022/08/20 08:07:49;;;;;;;10.73;4.80;;;27.20;99.90;;;27.37;47.72;101646.81;4826995;29;20073;-65
2022/08/20 08:10:21;;;;;;;9.82;4.22;;;27.20;99.90;;;27.49;46.34;101681.41;4826681;29;20638;-63
2022/08/20 08:12:55;;;;;;;9.30;4.05;;;27.20;99.90;;;27.59;46.88;101685.31;4826939;29;20496;-69
2022/08/20 08:15:30;;;;;;;13.38;4.85;;;27.30;99.90;;;27.57;45.21;101664.63;4826796;29;20133;-65
2022/08/20 08:18:06;;;;;;;11.70;3.75;;;27.30;99.90;;;27.65;44.16;101679.50;4827216;29;20051;-74
2022/08/20 08:20:40;;;;;;;9.25;3.88;;;27.30;99.90;;;27.62;42.61;101676.97;4825727;29;20573;-63
2022/08/20 08:23:14;;;;;;;13.27;4.32;;;27.30;99.90;;;27.66;44.74;101672.22;4827201;29;20047;-63
2022/08/20 08:25:59;;;;;;;12.80;4.25;;;27.30;99.90;;;27.82;44.05;101681.16;4827030;29;20051;-63
2022/08/20 08:28:29;;;;;;;15.00;4.65;;;27.50;99.90;;;27.82;43.47;101674.81;4826625;29;20050;-63
2022/08/20 08:30:58;;;;;;;10.95;3.92;;;27.50;99.90;;;27.81;43.26;101682.13;4827195;29;20120;-62
2022/08/20 08:33:31;;;;;;;11.63;4.25;;;27.50;99.90;;;27.98;43.35;101678.38;4827083;29;20054;-63
2022/08/20 08:36:03;;;;;;;11.35;3.58;;;27.60;99.90;;;27.90;42.15;101676.09;4826557;29;20497;-65
2022/08/20 08:38:34;;;;;;;11.88;3.85;;;27.60;99.90;;;27.84;42.87;101678.31;4826564;29;20066;-63
2022/08/20 08:41:12;;;;;;;8.68;3.50;;;27.50;99.90;;;27.58;42.74;101678.13;4826494;29;20465;-64
2022/08/20 08:43:40;;;;;;;9.10;4.00;;;27.30;99.90;;;27.46;42.86;101678.00;4826911;29;20054;-66
2022/08/20 08:46:11;;;;;;;7.68;3.20;;;27.10;99.90;;;27.38;41.98;101680.31;4826510;29;20074;-65
2022/08/20 08:48:44;;;;;;;9.10;4.15;;;27.00;99.90;;;27.32;40.60;101670.72;4826863;29;20058;-64
2022/08/20 08:51:21;;;;;;;10.07;4.03;;;27.00;99.90;;;27.28;42.74;101677.25;4826625;29;20042;-64
2022/08/20 08:53:53;;;;;;;10.68;3.88;;;26.90;99.90;;;27.27;43.95;101680.97;4826239;29;20080;-65
2022/08/20 08:56:27;;;;;;;11.90;3.85;;;26.90;99.90;;;27.39;44.56;101682.09;4826184;29;20397;-65
2022/08/20 08:59:00;;;;;;;11.25;4.20;;;27.00;99.90;;;27.44;43.90;101685.38;4826037;29;20075;-64
2022/08/20 09:01:30;;;;;;;11.27;3.47;;;27.10;99.90;;;27.34;43.49;101676.94;4824981;29;20114;-63
2022/08/20 09:04:21;;;;;;;9.45;4.63;;;27.00;99.90;;;27.25;44.34;101657.56;4825046;29;20046;-64
2022/08/20 09:06:53;;;;;;;15.18;4.32;;;27.00;99.90;;;27.34;45.56;101652.47;4825169;29;20078;-66
2022/08/20 09:09:25;;;;;;;10.18;4.20;;;27.10;99.90;;;27.60;45.03;101681.63;4824933;29;20497;-63
2022/08/20 09:12:01;;;;;;;10.43;4.03;;;27.20;99.90;;;27.81;44.67;101679.41;4826407;29;20165;-62
2022/08/20 09:14:30;;;;;;;10.85;3.88;;;27.40;99.90;;;27.70;42.68;101692.78;4826095;29;20480;-64
2022/08/20 09:16:58;;;;;;;8.93;3.83;;;27.30;99.90;;;27.65;42.85;101690.38;4825845;29;20504;-64
2022/08/20 09:19:26;;;;;;;8.70;3.75;;;27.30;99.90;;;27.47;42.88;101683.34;4825972;29;20046;-63
2022/08/20 09:21:56;;;;;;;10.52;3.90;;;27.10;99.90;;;27.40;43.88;101690.16;4825614;29;20132;-63
2022/08/20 09:24:25;;;;;;;12.10;3.97;;;27.00;99.90;;;27.25;42.69;101691.06;4825656;29;20110;-63
2022/08/20 09:26:53;;;;;;;11.35;4.18;;;26.80;99.90;;;27.21;42.46;101683.16;4825976;29;20409;-63
2022/08/20 09:29:22;;;;;;;8.98;3.50;;;26.80;99.90;;;27.14;42.62;101679.94;4824727;29;20484;-62
2022/08/20 09:31:50;;;;;;;12.27;3.75;;;26.80;99.90;;;27.07;43.31;101689.44;4825560;29;20073;-62
2022/08/20 09:34:19;;;;;;;9.90;4.03;;;26.70;99.90;;;27.06;43.23;101682.22;4825675;29;20418;-63
2022/08/20 09:36:48;;;;;;;9.00;3.83;;;26.70;99.90;;;27.01;43.55;101684.34;4824548;29;20050;-63
2022/08/20 09:39:17;;;;;;;9.75;3.67;;;26.70;99.90;;;27.03;42.70;101685.16;4825024;29;20095;-64
2022/08/20 09:41:45;;;;;;;9.83;4.13;;;26.70;99.90;;;26.97;43.00;101685.50;4824593;29;20058;-64
2022/08/20 09:44:14;;;;;;;8.35;3.60;;;26.60;99.90;;;26.92;43.03;101684.03;4825447;29;20065;-62
2022/08/20 09:46:42;;;;;;;11.18;3.95;;;26.60;99.90;;;26.92;43.57;101686.75;4825299;29;20509;-62
2022/08/20 09:49:10;;;;;;;11.63;3.80;;;26.50;99.90;;;26.78;43.10;101687.56;4825306;29;20082;-60
2022/08/20 09:51:39;;;;;;;8.85;4.32;;;26.40;99.90;;;26.62;42.04;101683.94;4825162;29;20045;-60
2022/08/20 09:54:07;;;;;;;9.73;3.40;;;26.30;99.90;;;26.64;43.56;101679.31;4825342;29;20046;-60
2022/08/20 09:56:37;;;;;;;10.35;3.72;;;26.20;99.90;;;26.64;44.04;101672.03;4825487;29;20046;-60
2022/08/20 09:59:05;;;;;;;11.23;3.55;;;26.20;99.90;;;26.58;44.12;101674.22;4825390;29;20050;-61
2022/08/20 10:01:33;;;;;;;9.95;3.80;;;26.20;99.90;;;26.57;43.75;101676.09;4825553;29;20047;-59
2022/08/20 10:04:02;;;;;;;8.40;3.22;;;26.10;99.90;;;26.65;43.32;101675.63;4825361;29;20215;-61
2022/08/20 10:06:31;;;;;;;9.00;3.80;;;26.20;99.90;;;26.79;44.31;101673.00;4825363;29;20046;-60
2022/08/20 10:09:05;;;;;;;7.72;3.25;;;26.40;99.90;;;26.89;43.77;101684.22;4825097;29;20058;-61
2022/08/20 10:11:33;;;;;;;9.52;3.20;;;26.50;99.90;;;26.79;44.11;101673.00;4825321;29;20078;-60
2022/08/20 10:14:03;;;;;;;12.23;3.60;;;26.40;99.90;;;26.74;43.29;101654.28;4825067;29;20054;-61
2022/08/20 10:16:32;;;;;;;7.22;3.40;;;26.40;99.90;;;26.78;43.77;101668.56;4825114;29;20517;-59
2022/08/20 10:19:00;;;;;;;9.88;3.70;;;26.40;99.90;;;26.68;42.45;101673.63;4825014;29;20047;-61
2022/08/20 10:21:30;;;;;;;12.75;3.88;;;26.30;99.90;;;26.62;42.55;101662.22;4824907;29;20050;-60
2022/08/20 10:24:04;;;;;;;11.65;3.75;;;26.20;99.90;;;26.60;44.32;101670.47;4825184;29;20058;-60
2022/08/20 10:26:32;;;;;;;9.18;3.50;;;26.20;99.90;;;26.58;43.30;101669.69;4824830;29;20042;-59
2022/08/20 10:29:00;;;;;;;8.50;3.60;;;26.10;99.90;;;26.60;43.14;101669.59;4824811;29;20470;-61
2022/08/20 10:31:30;;;;;;;10.15;3.70;;;26.20;99.90;;;26.63;43.18;101666.72;4824949;29;20054;-61